createdAt,value
2023-01-25T00:01:22.765Z,3.69
2023-01-25T00:06:28.415Z,3.71
2023-01-25T00:11:32.479Z,3.74
2023-01-25T00:16:38.341Z,3.69
2023-01-25T00:21:44.814Z,3.77
2023-01-25T00:26:48.188Z,3.76
2023-01-25T00:32:03.975Z,3.67
2023-01-25T00:37:29.679Z,3.64
2023-01-25T00:42:33.285Z,3.54
2023-01-25T00:47:38.021Z,3.58
2023-01-25T00:52:42.119Z,3.65
2023-01-25T00:57:45.510Z,3.61
2023-01-25T01:02:50.096Z,3.64
2023-01-25T01:07:53.142Z,3.72
2023-01-25T01:12:56.282Z,3.70
2023-01-25T01:18:54.617Z,3.72
2023-01-25T01:24:18.120Z,3.67
2023-01-25T01:29:21.781Z,3.65
2023-01-25T01:34:25.331Z,3.71
2023-01-25T01:39:30.131Z,3.71
2023-01-25T01:44:48.706Z,3.66
2023-01-25T01:50:00.030Z,3.64
2023-01-25T01:55:10.748Z,3.69
2023-01-25T02:00:20.638Z,3.77
2023-01-25T02:05:31.590Z,3.78
2023-01-25T02:10:37.791Z,3.67
2023-01-25T02:15:44.887Z,3.72
2023-01-25T02:20:51.688Z,3.71
2023-01-25T02:25:58.804Z,3.71
2023-01-25T02:31:02.030Z,3.67
2023-01-25T02:36:21.369Z,3.63
2023-01-25T02:41:33.822Z,3.64
2023-01-25T02:46:39.600Z,3.62
2023-01-25T02:51:45.088Z,3.56
2023-01-25T02:56:49.982Z,3.58
2023-01-25T03:01:53.131Z,3.62
2023-01-25T03:06:56.495Z,3.60
2023-01-25T03:12:01.616Z,3.69
2023-01-25T03:17:05.412Z,3.72
2023-01-25T03:22:10.521Z,3.74
2023-01-25T03:27:17.264Z,3.80
2023-01-25T03:32:20.522Z,3.78
2023-01-25T03:37:23.605Z,3.82
2023-01-25T03:42:30.640Z,3.84
2023-01-25T03:47:33.793Z,3.70
2023-01-25T03:52:40.970Z,3.76
2023-01-25T03:57:45.640Z,3.75
2023-01-25T04:02:48.911Z,3.72
2023-01-25T04:07:52.180Z,3.71
2023-01-25T04:12:56.667Z,3.62
2023-01-25T04:17:59.673Z,3.69
2023-01-25T04:23:03.016Z,3.64
2023-01-25T04:28:07.738Z,3.63
2023-01-25T04:33:12.070Z,3.59
2023-01-25T04:38:15.341Z,3.58
2023-01-25T04:43:20.956Z,3.55
2023-01-25T04:48:24.256Z,3.61
2023-01-25T04:53:27.447Z,3.58
2023-01-25T04:58:32.371Z,3.58
2023-01-25T05:03:38.108Z,3.57
2023-01-25T05:08:41.176Z,3.59
2023-01-25T05:13:45.830Z,3.66
2023-01-25T05:18:49.511Z,3.58
2023-01-25T05:23:52.714Z,3.66
2023-01-25T05:28:57.564Z,3.72
2023-01-25T05:34:00.730Z,3.74
2023-01-25T05:39:06.852Z,3.64
2023-01-25T05:44:11.854Z,3.65
2023-01-25T05:49:21.823Z,3.66
2023-01-25T05:54:25.023Z,3.69
2023-01-25T05:59:29.586Z,3.72
2023-01-25T06:04:32.772Z,3.72
2023-01-25T06:09:35.877Z,3.58
2023-01-25T06:14:41.178Z,3.43
2023-01-25T06:19:44.389Z,3.40
2023-01-25T06:24:47.400Z,3.49
2023-01-25T06:29:55.101Z,3.41
2023-01-25T06:34:58.383Z,3.41
2023-01-25T06:40:07.842Z,3.49
2023-01-25T06:45:13.407Z,3.58
2023-01-25T06:50:19.710Z,3.55
2023-01-25T06:55:24.054Z,3.55
2023-01-25T07:00:31.224Z,3.52
2023-01-25T07:05:34.668Z,3.52
2023-01-25T07:10:56.527Z,3.58
2023-01-25T07:16:03.316Z,3.64
2023-01-25T07:21:16.347Z,3.69
2023-01-25T07:26:21.808Z,3.62
2023-01-25T07:31:27.611Z,3.54
2023-01-25T07:36:30.772Z,3.53
2023-01-25T07:41:33.871Z,3.58
2023-01-25T07:46:38.332Z,3.63
2023-01-25T07:51:44.398Z,3.70
2023-01-25T07:56:47.557Z,3.73
2023-01-25T08:01:53.546Z,3.70
2023-01-25T08:06:57.842Z,3.73
2023-01-25T08:12:01.148Z,3.71
2023-01-25T08:17:06.002Z,3.63
2023-01-25T08:22:09.752Z,3.71
2023-01-25T08:27:13.186Z,3.72
2023-01-25T08:32:18.075Z,3.76
2023-01-25T08:37:21.365Z,3.80
2023-01-25T08:42:24.615Z,3.85
2023-01-25T08:47:29.133Z,3.87
2023-01-25T08:52:32.324Z,3.89
2023-01-25T08:57:35.385Z,3.88
2023-01-25T09:02:40.147Z,3.88
2023-01-25T09:07:43.272Z,3.89
2023-01-25T09:12:46.426Z,3.89
2023-01-25T09:17:53.236Z,3.93
2023-01-25T09:22:56.515Z,3.99
2023-01-25T09:28:00.392Z,4.02
2023-01-25T09:33:05.285Z,4.07
2023-01-25T09:38:08.778Z,4.14
2023-01-25T09:43:26.591Z,4.18
2023-01-25T09:48:40.937Z,4.15
2023-01-25T09:53:54.237Z,4.17
2023-01-25T09:59:00.902Z,4.12
2023-01-25T10:04:12.547Z,4.17
2023-01-25T10:09:25.957Z,4.17
2023-01-25T10:14:35.602Z,4.16
2023-01-25T10:19:55.366Z,4.18
2023-01-25T10:25:22.220Z,4.18
2023-01-25T10:30:30.510Z,4.24
2023-01-25T10:35:43.252Z,4.27
2023-01-25T10:40:54.477Z,4.29
2023-01-25T10:45:57.695Z,4.33
2023-01-25T10:51:02.221Z,4.33
2023-01-25T10:56:26.892Z,4.44
2023-01-25T11:01:31.838Z,4.41
2023-01-25T11:06:38.584Z,4.40
2023-01-25T11:11:42.415Z,4.41
2023-01-25T11:16:48.075Z,4.40
2023-01-25T11:21:55.273Z,4.35
2023-01-25T11:27:18.053Z,4.32
2023-01-25T11:32:25.193Z,4.28
2023-01-25T11:37:45.615Z,4.31
2023-01-25T11:43:04.471Z,4.33
2023-01-25T11:48:32.322Z,4.33
2023-01-25T11:53:51.871Z,4.31
2023-01-25T11:59:23.617Z,4.41
2023-01-25T12:04:58.829Z,4.44
2023-01-25T12:10:21.733Z,4.42
2023-01-25T12:16:04.846Z,4.50
2023-01-25T12:21:30.530Z,4.44
2023-01-25T12:26:46.482Z,4.46
2023-01-25T12:31:56.484Z,4.41
2023-01-25T12:37:01.861Z,4.44
2023-01-25T12:42:16.337Z,4.41
2023-01-25T12:47:24.583Z,4.42
2023-01-25T12:52:33.112Z,4.47
2023-01-25T12:57:45.348Z,4.39
2023-01-25T13:03:13.629Z,4.35
2023-01-25T13:08:32.115Z,4.41
2023-01-25T13:13:36.945Z,4.41
2023-01-25T13:18:41.675Z,4.44
2023-01-25T13:23:47.735Z,4.50
2023-01-25T13:28:53.352Z,4.48
2023-01-25T13:33:57.519Z,4.50
2023-01-25T13:39:02.427Z,4.45
2023-01-25T13:44:28.375Z,4.47
2023-01-25T13:49:38.234Z,4.46
2023-01-25T13:54:44.834Z,4.50
2023-01-25T13:59:52.432Z,4.49
2023-01-25T14:04:58.700Z,4.51
2023-01-25T14:10:05.635Z,4.48
2023-01-25T14:15:18.858Z,4.48
2023-01-25T14:20:23.195Z,4.50
2023-01-25T14:25:27.404Z,4.37
2023-01-25T14:30:34.288Z,4.30
2023-01-25T14:35:42.782Z,4.33
2023-01-25T14:40:56.053Z,4.36
2023-01-25T14:46:00.881Z,4.33
2023-01-25T14:51:07.918Z,4.37
2023-01-25T14:56:30.572Z,4.34
2023-01-25T15:01:39.447Z,4.34
2023-01-25T15:06:48.668Z,4.33
2023-01-25T15:12:00.704Z,4.22
2023-01-25T15:17:05.243Z,4.11
2023-01-25T15:22:09.997Z,4.09
2023-01-25T15:27:19.867Z,4.16
2023-01-25T15:32:25.399Z,4.17
2023-01-25T15:37:28.561Z,4.20
2023-01-25T15:42:32.665Z,4.20
2023-01-25T15:47:37.716Z,4.17
2023-01-25T15:52:42.077Z,4.17
2023-01-25T15:57:46.969Z,4.17
2023-01-25T16:02:51.941Z,4.17
2023-01-25T16:07:57.609Z,4.21
2023-01-25T16:13:00.864Z,4.21
2023-01-25T16:18:05.620Z,4.21
2023-01-25T16:23:09.441Z,4.18
2023-01-25T16:28:15.695Z,4.13
2023-01-25T16:33:24.418Z,4.16
2023-01-25T16:38:27.553Z,4.11
2023-01-25T16:43:42.070Z,4.03
2023-01-25T16:48:48.764Z,4.07
2023-01-25T16:53:55.585Z,4.04
2023-01-25T16:59:01.644Z,3.97
2023-01-25T17:04:06.289Z,3.95
2023-01-25T17:09:21.877Z,3.99
2023-01-25T17:14:25.926Z,3.97
2023-01-25T17:19:30.711Z,3.97
2023-01-25T17:24:35.926Z,3.96
2023-01-25T17:29:39.128Z,3.94
2023-01-25T17:34:43.677Z,3.94
2023-01-25T17:39:47.744Z,3.96
2023-01-25T17:44:50.764Z,4.01
2023-01-25T17:49:55.372Z,3.94
2023-01-25T17:55:00.531Z,3.98
2023-01-25T18:00:06.118Z,3.87
2023-01-25T18:05:10.858Z,3.87
2023-01-25T18:10:14.681Z,3.79
2023-01-25T18:15:18.308Z,3.76
2023-01-25T18:20:22.975Z,3.70
2023-01-25T18:25:32.618Z,3.73
2023-01-25T18:30:38.265Z,3.79
2023-01-25T18:35:43.976Z,3.77
2023-01-25T18:40:47.374Z,3.72
2023-01-25T18:45:55.655Z,3.73
2023-01-25T18:51:01.433Z,3.75
2023-01-25T18:56:07.327Z,3.72
2023-01-25T19:01:14.208Z,3.66
2023-01-25T19:06:20.286Z,3.64
2023-01-25T19:11:25.246Z,3.71
2023-01-25T19:16:28.593Z,3.73
2023-01-25T19:21:34.613Z,3.74
2023-01-25T19:26:37.800Z,3.69
2023-01-25T19:31:41.241Z,3.74
2023-01-25T19:36:50.233Z,3.74
2023-01-25T19:41:54.523Z,3.75
2023-01-25T19:46:58.781Z,3.76
2023-01-25T19:52:03.723Z,3.77
2023-01-25T19:57:07.222Z,3.75
2023-01-25T20:02:16.179Z,3.75
2023-01-25T20:07:20.799Z,3.80
2023-01-25T20:12:23.945Z,3.80
2023-01-25T20:17:27.139Z,3.81
2023-01-25T20:22:31.787Z,3.82
2023-01-25T20:27:35.054Z,3.78
2023-01-25T20:32:38.274Z,3.75
2023-01-25T20:37:44.040Z,3.75
2023-01-25T20:42:47.240Z,3.78
2023-01-25T20:47:50.578Z,3.81
2023-01-25T20:52:55.225Z,3.81
2023-01-25T20:57:59.275Z,3.76
2023-01-25T21:03:02.965Z,3.76
2023-01-25T21:08:10.410Z,3.78
2023-01-25T21:13:14.204Z,3.77
2023-01-25T21:18:20.580Z,3.81
2023-01-25T21:23:28.497Z,3.78
2023-01-25T21:28:36.625Z,3.76
2023-01-25T21:33:44.703Z,3.74
2023-01-25T21:38:50.900Z,3.75
2023-01-25T21:44:17.176Z,3.74
2023-01-25T21:49:37.892Z,3.75
2023-01-25T21:54:43.201Z,3.74
2023-01-25T21:59:46.648Z,3.78
2023-01-25T22:04:49.805Z,3.75
2023-01-25T22:09:54.329Z,3.76
2023-01-25T22:14:57.723Z,3.75
2023-01-25T22:20:01.119Z,3.77
2023-01-25T22:25:06.509Z,3.81
2023-01-25T22:30:12.437Z,3.81
2023-01-25T22:35:15.889Z,3.80
2023-01-25T22:40:20.952Z,3.77
2023-01-25T22:45:24.312Z,3.77
2023-01-25T22:50:27.514Z,3.77
2023-01-25T22:55:33.765Z,3.75
2023-01-25T23:00:37.518Z,3.73
2023-01-25T23:05:41.380Z,3.69
2023-01-25T23:10:46.078Z,3.65
2023-01-25T23:15:49.417Z,3.66
2023-01-25T23:20:52.634Z,3.63
2023-01-25T23:25:58.274Z,3.62
2023-01-25T23:31:17.998Z,3.64
2023-01-25T23:36:23.587Z,3.60
2023-01-25T23:41:30.369Z,3.57
2023-01-25T23:46:33.841Z,3.56
2023-01-25T23:51:37.246Z,3.59
2023-01-25T23:56:41.956Z,3.57
